Ludlow Falls, Ohio
Current Conditions -  °F | °C
As of 9:56 PM on Friday 19 Dec 2014 (Local Time) from KDAY Reporting Station
Overcast Overcast  
Wind Chill: 30°   Ceiling: 2000
Heat Index: 30°   Visibility: 10mi
Dew Point: 22°   Wind: 0mph
Humidity: 72%   Direction: NA
Pressure: 30.28"   Gusts: NA
Location:  40°N, 84.34°W
Report Text: KDAY 200256Z 00000KT 10SM OVC020 M01/M06 A3028 RMK AO2 SLP265 T10111056 56007
Loading
Personal Weather Stations






























Interactive Weather Map New forecast layout! Learn more

10-Day Weather Forecast

Advertisements
Track Severe Weather on mobile